< Cyclone 200620 2006 Season Cyclone 200705 >
Cyclone 200622 (MONICA)
General InformationTrack Information on Google MapsDetailed Wind InformationList of All Images || ResourceGoogle EarthGE AnimationAtom FeedGeoJSON
Detalied Best Track (Time Zone = UTC)
Year Month Day Hour Lat. Long. Pressure (hPa) Wind (kt) Class Image Chart
2006 4 16 00 -9.4 152.5 1003 20 2 Image --
2006 4 16 06 -11.0 151.3 1003 20 2 Image --
2006 4 16 12 -11.4 151.0 1003 25 2 Image --
2006 4 16 18 -11.4 151.0 1000 30 2 Image --
2006 4 17 00 -12.2 150.5 994 35 3 Image --
2006 4 17 06 -12.2 149.8 994 35 3 Image --
2006 4 17 12 -12.2 149.4 990 40 3 Image --
2006 4 17 18 -12.4 148.5 985 50 4 Image --
2006 4 18 00 -12.6 148.3 980 55 4 Image --
2006 4 18 06 -12.9 146.5 975 60 4 Image --
2006 4 18 12 -12.6 145.4 970 65 5 Image --
2006 4 18 18 -12.8 144.8 965 70 5 Image --
2006 4 19 00 -12.9 144.3 965 70 5 Image --
2006 4 19 06 -13.1 143.4 965 70 5 Image --
2006 4 19 12 -13.4 142.6 970 65 5 Image --
2006 4 19 18 -13.4 141.9 985 50 4 Image --
2006 4 20 00 -13.6 141.5 987 45 3 Image --
2006 4 20 06 -13.8 140.6 987 45 3 Image --
2006 4 20 12 -13.7 140.4 980 55 4 Image --
2006 4 20 18 -13.5 140.1 975 60 4 Image --
2006 4 21 00 -13.4 140.1 971 65 5 Image --
2006 4 21 06 -13.2 139.9 959 80 5 Image --
2006 4 21 12 -13.0 139.7 954 90 5 Image --
2006 4 21 18 -12.7 139.6 953 90 5 Image --
2006 4 22 00 -12.5 139.4 947 100 5 Image --
2006 4 22 06 -12.4 139.2 935 110 5 Image --
2006 4 22 12 -12.0 138.8 928 125 5 Image --
2006 4 22 18 -11.7 138.4 928 125 5 Image --
2006 4 23 00 -11.3 138.0 929 125 5 Image --
2006 4 23 06 -11.3 137.4 916 135 5 Image --
2006 4 23 12 -11.2 137.0 919 135 5 Image --
2006 4 23 18 -11.2 135.8 917 135 5 Image --
2006 4 24 00 -11.3 135.2 919 135 5 Image --
2006 4 24 06 -11.6 134.4 917 135 5 Image --
2006 4 24 09 -11.7 134.0 917 135 5 Image --
2006 4 24 12 -11.9 133.7 954 90 5 Image --
2006 4 24 18 -12.5 132.9 983 50 4 Image --
2006 4 25 00 -12.4 131.4 998 25 2 Image --
2006 4 25 06 -12.2 130.7 998 25 2 Image --
2006 4 25 12 -12.3 130.5 998 30 2 Image --
2006 4 25 18 -12.6 130.2 995 30 2 Image --
2006 4 26 00 -13.1 129.6 996 30 2 Image --
2006 4 26 06 -13.5 129.4 995 30 2 Image --
2006 4 26 12 -13.9 129.9 1000 20 2 Image --
2006 4 26 18 -14.5 130.3 1002 20 2 Image --
2006 4 27 00 -15.3 130.8 1004 20 2 Image --
2006 4 27 06 -17.0 131.4 1003 20 2 Image --
2006 4 27 12 -17.4 131.9 1005 20 2 Image --
2006 4 27 18 -17.7 132.6 1005 20 2 Image --
< Cyclone 200620 2006 Season Cyclone 200705 >

Help